Time;durP1;ratioP1;P1;durP2;ratioP2;P2;SDS_P1;SDS_P2;PMS_P1;PMS_P2;Temp;Humidity;BMP_temperature;BMP_pressure;BME280_temperature;BME280_humidity;BME280_pressure;Samples;Min_cycle;Max_cycle;Signal;HPM_P1;HPM_P2
2023/11/14 00:00:14;;;;;;;0.20;0.20;;;;;;;;;;5078502;28;20020;-82
2023/11/14 00:02:40;;;;;;;0.30;0.30;;;;;;;;;;5069657;28;20032;-81
2023/11/14 00:05:07;;;;;;;0.40;0.40;;;;;;;;;;5071374;28;20092;-81
2023/11/14 00:07:33;;;;;;;0.32;0.30;;;;;;;;;;5064268;28;20113;-81
2023/11/14 00:09:59;;;;;;;1.05;0.32;;;;;;;;;;5076738;28;20391;-82
2023/11/14 00:12:25;;;;;;;0.30;0.30;;;;;;;;;;5074940;28;20031;-81
2023/11/14 00:14:51;;;;;;;0.82;0.80;;;;;;;;;;5069357;28;20021;-81
2023/11/14 00:17:17;;;;;;;3.67;0.40;;;;;;;;;;5072071;28;20416;-81
2023/11/14 00:19:43;;;;;;;1.45;0.35;;;;;;;;;;5074207;28;20017;-82
2023/11/14 00:22:10;;;;;;;0.50;0.50;;;;;;;;;;5070377;28;20021;-82
2023/11/14 00:24:36;;;;;;;1.23;0.40;;;;;;;;;;5071053;28;20017;-82
2023/11/14 00:27:02;;;;;;;0.43;0.43;;;;;;;;;;5079533;28;20036;-81
2023/11/14 00:29:29;;;;;;;0.20;0.20;;;;;;;;;;5073791;28;20036;-80
2023/11/14 00:31:55;;;;;;;0.40;0.40;;;;;;;;;;5067659;28;20021;-82
2023/11/14 00:34:22;;;;;;;1.27;0.60;;;;;;;;;;5070799;28;20024;-82
2023/11/14 00:36:50;;;;;;;1.42;0.32;;;;;;;;;;5071665;28;20064;-83
2023/11/14 00:39:16;;;;;;;0.40;0.40;;;;;;;;;;5071935;28;20089;-83
2023/11/14 00:41:47;;;;;;;1.90;0.82;;;;;;;;;;5066558;28;20025;-82
2023/11/14 00:47:10;;;;;;;0.40;0.40;;;;;;;;;;5088446;28;20048;-81
2023/11/14 00:49:36;;;;;;;0.40;0.40;;;;;;;;;;5078372;28;20032;-82
2023/11/14 00:52:02;;;;;;;0.40;0.40;;;;;;;;;;5072044;28;20096;-83
2023/11/14 00:54:31;;;;;;;0.40;0.40;;;;;;;;;;5075440;28;20032;-83
2023/11/14 00:56:57;;;;;;;1.00;0.50;;;;;;;;;;5070348;28;20017;-82
2023/11/14 00:59:23;;;;;;;0.50;0.40;;;;;;;;;;5087576;28;20021;-81
2023/11/14 01:01:50;;;;;;;1.08;0.40;;;;;;;;;;5092545;28;20020;-82
2023/11/14 01:04:18;;;;;;;2.15;0.40;;;;;;;;;;5094966;28;20024;-82
2023/11/14 01:06:44;;;;;;;1.08;0.50;;;;;;;;;;5080833;28;20045;-82
2023/11/14 01:09:10;;;;;;;0.65;0.40;;;;;;;;;;5090681;28;20025;-82
2023/11/14 01:11:36;;;;;;;0.30;0.30;;;;;;;;;;5068987;28;20037;-83
2023/11/14 01:14:02;;;;;;;0.20;0.20;;;;;;;;;;5071071;28;20036;-83
2023/11/14 01:16:28;;;;;;;0.30;0.30;;;;;;;;;;5066078;28;20031;-83
2023/11/14 01:19:13;;;;;;;1.42;0.60;;;;;;;;;;5085704;28;20013;-82
2023/11/14 01:21:47;;;;;;;1.75;0.40;;;;;;;;;;5092067;28;20068;-83
2023/11/14 01:27:21;;;;;;;0.60;0.30;;;;;;;;;;5092437;28;20117;-80
2023/11/14 01:30:07;;;;;;;0.45;0.45;;;;;;;;;;5086276;28;20036;-83
2023/11/14 01:32:33;;;;;;;0.17;0.17;;;;;;;;;;5082327;28;20056;-83
2023/11/14 01:34:59;;;;;;;0.73;0.30;;;;;;;;;;5069449;28;20100;-83
2023/11/14 01:37:26;;;;;;;0.10;0.10;;;;;;;;;;5064874;28;20053;-83
2023/11/14 01:39:52;;;;;;;0.47;0.30;;;;;;;;;;5077227;28;20025;-82
2023/11/14 01:42:18;;;;;;;1.02;0.32;;;;;;;;;;5071055;28;20166;-82
2023/11/14 01:44:45;;;;;;;1.75;1.08;;;;;;;;;;5067634;28;20025;-83
2023/11/14 01:47:12;;;;;;;1.85;0.60;;;;;;;;;;5069355;28;20483;-84
2023/11/14 01:49:38;;;;;;;1.08;0.45;;;;;;;;;;5084783;28;20032;-85
2023/11/14 01:52:04;;;;;;;1.20;0.50;;;;;;;;;;5084603;28;20021;-85
2023/11/14 01:54:30;;;;;;;1.00;0.40;;;;;;;;;;5076466;28;20041;-84
2023/11/14 01:56:56;;;;;;;4.72;0.70;;;;;;;;;;5075988;28;20116;-84
2023/11/14 01:59:23;;;;;;;2.90;0.35;;;;;;;;;;5065734;28;20029;-83
2023/11/14 02:01:50;;;;;;;2.88;0.32;;;;;;;;;;5076554;28;20368;-84
2023/11/14 02:04:19;;;;;;;1.67;0.50;;;;;;;;;;5070332;28;20104;-83
2023/11/14 02:06:46;;;;;;;4.10;0.88;;;;;;;;;;5073566;28;20028;-83
2023/11/14 02:09:12;;;;;;;3.60;0.45;;;;;;;;;;5066754;28;20031;-83
2023/11/14 02:11:38;;;;;;;2.13;0.35;;;;;;;;;;5060010;28;20455;-83
2023/11/14 02:14:05;;;;;;;0.55;0.45;;;;;;;;;;5074750;28;20032;-83
2023/11/14 02:16:50;;;;;;;1.67;0.65;;;;;;;;;;5074761;28;20386;-83
2023/11/14 02:19:17;;;;;;;0.30;0.28;;;;;;;;;;5075895;28;20025;-85
2023/11/14 02:21:44;;;;;;;3.08;0.73;;;;;;;;;;5079281;28;20024;-83
2023/11/14 02:24:11;;;;;;;4.15;0.80;;;;;;;;;;5072401;28;20070;-84
2023/11/14 02:26:37;;;;;;;3.00;0.90;;;;;;;;;;5063620;28;20035;-84
2023/11/14 02:29:04;;;;;;;4.55;0.93;;;;;;;;;;5077393;28;20024;-83
2023/11/14 02:31:30;;;;;;;4.80;0.77;;;;;;;;;;5064153;28;20036;-83
2023/11/14 02:33:56;;;;;;;4.78;1.02;;;;;;;;;;5077656;28;20029;-83
2023/11/14 02:36:23;;;;;;;6.93;1.35;;;;;;;;;;5091754;28;20028;-84
2023/11/14 02:38:49;;;;;;;4.05;1.00;;;;;;;;;;5080652;28;20021;-83
2023/11/14 02:41:15;;;;;;;4.43;1.02;;;;;;;;;;5078400;28;20028;-84
2023/11/14 02:43:41;;;;;;;6.88;1.00;;;;;;;;;;5068208;28;20062;-83
2023/11/14 02:46:07;;;;;;;2.03;0.65;;;;;;;;;;5060151;28;20013;-84
2023/11/14 02:48:34;;;;;;;2.03;0.70;;;;;;;;;;5060568;28;20044;-83
2023/11/14 02:51:00;;;;;;;2.75;1.00;;;;;;;;;;5066687;28;20413;-83
2023/11/14 02:53:26;;;;;;;6.55;1.00;;;;;;;;;;5067956;28;20032;-82
2023/11/14 02:55:53;;;;;;;5.53;1.17;;;;;;;;;;5069266;28;20445;-83
2023/11/14 02:58:19;;;;;;;6.30;1.20;;;;;;;;;;5062817;28;20025;-84
2023/11/14 03:00:47;;;;;;;3.72;0.85;;;;;;;;;;5075328;28;20043;-85
2023/11/14 03:03:13;;;;;;;7.75;1.25;;;;;;;;;;5079742;28;20526;-82
2023/11/14 03:05:39;;;;;;;3.42;0.90;;;;;;;;;;5069342;28;20078;-84
2023/11/14 03:08:05;;;;;;;3.08;0.80;;;;;;;;;;5062844;28;20020;-84
2023/11/14 03:10:31;;;;;;;4.88;1.00;;;;;;;;;;5079190;28;20395;-84
2023/11/14 03:12:58;;;;;;;5.13;1.05;;;;;;;;;;5059374;28;20025;-84
2023/11/14 03:15:26;;;;;;;4.22;0.85;;;;;;;;;;5065612;28;20028;-83
2023/11/14 03:17:55;;;;;;;6.40;1.20;;;;;;;;;;5078202;28;20108;-84
2023/11/14 03:20:21;;;;;;;2.95;0.88;;;;;;;;;;5070680;28;20028;-83
2023/11/14 03:22:47;;;;;;;4.82;1.33;;;;;;;;;;5079528;28;20097;-84
2023/11/14 03:25:13;;;;;;;4.40;0.90;;;;;;;;;;5071410;28;20036;-83
2023/11/14 03:27:40;;;;;;;8.60;1.40;;;;;;;;;;5063093;28;20028;-85
2023/11/14 03:30:10;;;;;;;2.10;0.80;;;;;;;;;;5065672;28;20025;-83
2023/11/14 03:32:36;;;;;;;5.15;0.70;;;;;;;;;;5067894;28;20091;-84
2023/11/14 03:35:04;;;;;;;4.28;1.00;;;;;;;;;;5070234;28;20379;-84
2023/11/14 03:37:30;;;;;;;3.53;1.00;;;;;;;;;;5063628;28;20019;-84
2023/11/14 03:39:56;;;;;;;4.60;1.50;;;;;;;;;;5071903;28;20031;-84
2023/11/14 03:42:22;;;;;;;2.90;0.82;;;;;;;;;;5072562;28;20020;-83
2023/11/14 03:44:51;;;;;;;3.05;1.17;;;;;;;;;;5077589;28;20467;-83
2023/11/14 03:47:17;;;;;;;1.92;0.82;;;;;;;;;;5060664;28;20078;-84
2023/11/14 03:49:43;;;;;;;3.13;0.90;;;;;;;;;;5059326;28;20369;-84
2023/11/14 03:52:09;;;;;;;2.42;1.05;;;;;;;;;;5065375;28;20016;-84
2023/11/14 03:54:38;;;;;;;3.13;0.65;;;;;;;;;;5066358;28;20020;-84
2023/11/14 03:57:05;;;;;;;6.88;1.20;;;;;;;;;;5077702;28;20378;-84
2023/11/14 03:59:31;;;;;;;5.38;1.20;;;;;;;;;;5069662;28;20029;-85
2023/11/14 04:01:57;;;;;;;5.30;1.27;;;;;;;;;;5072058;28;20102;-85
2023/11/14 04:04:23;;;;;;;5.88;1.05;;;;;;;;;;5078654;28;20051;-85
2023/11/14 04:06:49;;;;;;;3.97;1.00;;;;;;;;;;5077194;28;20028;-84
2023/11/14 04:09:15;;;;;;;4.25;0.90;;;;;;;;;;5064310;28;20028;-83
2023/11/14 04:11:48;;;;;;;4.65;0.90;;;;;;;;;;5068142;28;20021;-84
2023/11/14 04:14:15;;;;;;;5.22;1.35;;;;;;;;;;5067105;28;20512;-83
2023/11/14 04:16:41;;;;;;;7.05;1.40;;;;;;;;;;5064188;28;20106;-80
2023/11/14 04:19:07;;;;;;;4.85;1.10;;;;;;;;;;5076013;28;20483;-81
2023/11/14 04:21:33;;;;;;;5.18;1.30;;;;;;;;;;5095192;28;20046;-80
2023/11/14 04:23:59;;;;;;;8.00;1.25;;;;;;;;;;5079682;28;20475;-80
2023/11/14 04:26:25;;;;;;;3.78;1.23;;;;;;;;;;5065924;28;20052;-81
2023/11/14 04:28:52;;;;;;;6.50;0.90;;;;;;;;;;5078805;28;20025;-82
2023/11/14 04:31:18;;;;;;;1.90;0.68;;;;;;;;;;5082184;28;20016;-78
2023/11/14 04:33:44;;;;;;;2.95;0.80;;;;;;;;;;5080714;28;20017;-82
2023/11/14 04:36:10;;;;;;;3.05;0.73;;;;;;;;;;5069269;28;20025;-80
2023/11/14 04:38:37;;;;;;;3.42;1.10;;;;;;;;;;5062855;28;20033;-77
2023/11/14 04:41:04;;;;;;;2.17;0.85;;;;;;;;;;5061366;28;20158;-77
2023/11/14 04:43:30;;;;;;;1.77;0.77;;;;;;;;;;5070027;28;20049;-77
2023/11/14 04:45:56;;;;;;;5.75;1.10;;;;;;;;;;5076289;28;20111;-78
2023/11/14 04:48:23;;;;;;;2.47;0.80;;;;;;;;;;5061108;28;20502;-78
2023/11/14 04:50:49;;;;;;;4.40;1.00;;;;;;;;;;5075584;28;20045;-77
2023/11/14 04:53:15;;;;;;;2.33;0.73;;;;;;;;;;5079165;28;20056;-77
2023/11/14 04:55:41;;;;;;;3.47;0.90;;;;;;;;;;5079554;28;20036;-77
2023/11/14 04:58:10;;;;;;;3.03;0.75;;;;;;;;;;5095373;28;20024;-76
2023/11/14 05:00:36;;;;;;;3.95;0.95;;;;;;;;;;5087518;28;20076;-80
2023/11/14 05:03:05;;;;;;;1.48;0.90;;;;;;;;;;5086210;28;20029;-80
2023/11/14 05:05:34;;;;;;;2.67;0.93;;;;;;;;;;5093807;28;20051;-78
2023/11/14 05:08:00;;;;;;;2.92;0.63;;;;;;;;;;5079595;28;20115;-79
2023/11/14 05:10:26;;;;;;;4.22;1.10;;;;;;;;;;5078808;28;20025;-79
2023/11/14 05:12:52;;;;;;;3.47;1.00;;;;;;;;;;5065201;28;20064;-79
2023/11/14 05:15:19;;;;;;;7.10;1.27;;;;;;;;;;5076815;28;20471;-79
2023/11/14 05:17:45;;;;;;;6.75;1.50;;;;;;;;;;5072710;28;20040;-78
2023/11/14 05:20:11;;;;;;;4.45;1.90;;;;;;;;;;5077395;28;20027;-80
2023/11/14 05:22:38;;;;;;;3.65;1.08;;;;;;;;;;5072315;28;20108;-79
2023/11/14 05:25:05;;;;;;;4.55;1.23;;;;;;;;;;5069454;28;20063;-80
2023/11/14 05:27:31;;;;;;;5.00;0.85;;;;;;;;;;5069508;28;20467;-80
2023/11/14 05:29:57;;;;;;;5.15;1.13;;;;;;;;;;5073535;28;20025;-78
2023/11/14 05:32:23;;;;;;;1.88;0.63;;;;;;;;;;5069885;28;20025;-79
2023/11/14 05:34:49;;;;;;;2.40;0.90;;;;;;;;;;5069638;28;20029;-79
2023/11/14 05:37:15;;;;;;;3.35;1.08;;;;;;;;;;5069817;28;20017;-80
2023/11/14 05:39:41;;;;;;;1.50;0.63;;;;;;;;;;5060422;28;20399;-80
2023/11/14 05:42:07;;;;;;;2.65;0.82;;;;;;;;;;5073904;28;20032;-79
2023/11/14 05:44:36;;;;;;;5.60;1.38;;;;;;;;;;5070287;28;20049;-80
2023/11/14 05:47:05;;;;;;;2.55;0.82;;;;;;;;;;5063496;28;20085;-79
2023/11/14 05:49:33;;;;;;;2.08;0.70;;;;;;;;;;5074233;28;20037;-79
2023/11/14 05:51:59;;;;;;;1.23;0.50;;;;;;;;;;5072383;28;20039;-79
2023/11/14 05:54:25;;;;;;;1.77;0.55;;;;;;;;;;5081956;28;20020;-80
2023/11/14 05:56:51;;;;;;;2.15;0.70;;;;;;;;;;5073150;28;20025;-79
2023/11/14 05:59:17;;;;;;;1.38;0.70;;;;;;;;;;5072939;28;20056;-79
2023/11/14 06:01:44;;;;;;;2.17;0.60;;;;;;;;;;5072569;28;20391;-79
2023/11/14 06:04:10;;;;;;;4.00;1.70;;;;;;;;;;5076227;28;20021;-79
2023/11/14 06:06:36;;;;;;;1.85;1.10;;;;;;;;;;5075230;28;20055;-79
2023/11/14 06:09:02;;;;;;;2.13;1.23;;;;;;;;;;5067220;28;20036;-79
2023/11/14 06:11:29;;;;;;;2.05;1.27;;;;;;;;;;5079052;28;20544;-79
2023/11/14 06:13:55;;;;;;;2.22;1.17;;;;;;;;;;5077055;28;20031;-82
2023/11/14 06:16:21;;;;;;;1.38;1.00;;;;;;;;;;5073968;28;20045;-79
2023/11/14 06:18:47;;;;;;;1.05;0.90;;;;;;;;;;5079278;28;20127;-78
2023/11/14 06:21:13;;;;;;;1.48;1.00;;;;;;;;;;5068608;28;20159;-82
2023/11/14 06:23:40;;;;;;;1.02;0.80;;;;;;;;;;5084721;28;20024;-82
2023/11/14 06:26:06;;;;;;;2.15;0.88;;;;;;;;;;5068966;28;20031;-84
2023/11/14 06:28:35;;;;;;;1.55;0.70;;;;;;;;;;5076894;28;20025;-84
2023/11/14 06:31:01;;;;;;;1.40;0.60;;;;;;;;;;5071380;28;20062;-82
2023/11/14 06:33:32;;;;;;;1.55;0.82;;;;;;;;;;5071526;28;20025;-83
2023/11/14 06:35:58;;;;;;;1.30;0.75;;;;;;;;;;5083660;28;20085;-83
2023/11/14 06:38:24;;;;;;;2.22;0.75;;;;;;;;;;5087721;28;20041;-82
2023/11/14 06:40:50;;;;;;;1.80;0.80;;;;;;;;;;5079895;28;20028;-84
2023/11/14 06:43:16;;;;;;;1.23;0.90;;;;;;;;;;5076155;28;20029;-82
2023/11/14 06:45:42;;;;;;;1.30;0.68;;;;;;;;;;5083676;28;20429;-82
2023/11/14 06:48:09;;;;;;;0.98;0.55;;;;;;;;;;5084045;28;20032;-83
2023/11/14 06:50:35;;;;;;;2.15;1.23;;;;;;;;;;5074008;28;20025;-82
2023/11/14 06:53:01;;;;;;;1.35;0.60;;;;;;;;;;5065296;28;20028;-83
2023/11/14 06:55:28;;;;;;;1.05;0.60;;;;;;;;;;5072932;28;20029;-83
2023/11/14 06:57:54;;;;;;;1.08;0.60;;;;;;;;;;5072054;28;20029;-82
2023/11/14 07:00:20;;;;;;;0.52;0.50;;;;;;;;;;5076331;28;20025;-84
2023/11/14 07:02:46;;;;;;;2.97;0.60;;;;;;;;;;5075682;28;20032;-84
2023/11/14 07:05:13;;;;;;;3.10;0.70;;;;;;;;;;5078951;28;20021;-83
2023/11/14 07:07:39;;;;;;;1.20;0.47;;;;;;;;;;5064225;28;20020;-83
2023/11/14 07:10:06;;;;;;;1.13;0.45;;;;;;;;;;5074432;28;20115;-83
2023/11/14 07:12:32;;;;;;;0.45;0.43;;;;;;;;;;5081491;28;20031;-83
2023/11/14 07:15:00;;;;;;;0.95;0.30;;;;;;;;;;5072499;28;20030;-83
2023/11/14 07:17:26;;;;;;;1.13;0.70;;;;;;;;;;5076894;28;20029;-78
2023/11/14 07:19:54;;;;;;;1.88;0.70;;;;;;;;;;5076927;28;20083;-79
2023/11/14 07:22:20;;;;;;;1.00;0.60;;;;;;;;;;5080232;28;20475;-80
2023/11/14 07:24:46;;;;;;;0.90;0.63;;;;;;;;;;5086862;28;20028;-80
2023/11/14 07:27:14;;;;;;;0.68;0.45;;;;;;;;;;5085071;28;20036;-80
2023/11/14 07:29:40;;;;;;;0.65;0.30;;;;;;;;;;5072644;28;20029;-81
2023/11/14 07:32:08;;;;;;;1.02;0.55;;;;;;;;;;5095749;28;20054;-80
2023/11/14 07:34:34;;;;;;;1.25;0.55;;;;;;;;;;5082806;28;20055;-80
2023/11/14 07:37:02;;;;;;;0.70;0.40;;;;;;;;;;5086723;28;20021;-81
2023/11/14 07:39:28;;;;;;;0.55;0.40;;;;;;;;;;5069921;28;20025;-79
2023/11/14 07:41:54;;;;;;;0.85;0.40;;;;;;;;;;5069813;28;20479;-80
2023/11/14 07:44:20;;;;;;;0.70;0.32;;;;;;;;;;5063934;28;20091;-80
2023/11/14 07:46:46;;;;;;;1.58;0.52;;;;;;;;;;5071875;28;20035;-80
2023/11/14 07:49:12;;;;;;;1.27;0.75;;;;;;;;;;5077538;28;20036;-80
2023/11/14 07:51:38;;;;;;;1.08;0.63;;;;;;;;;;5079009;28;20070;-80
2023/11/14 07:54:04;;;;;;;1.95;0.47;;;;;;;;;;5078430;28;20088;-79
2023/11/14 07:56:30;;;;;;;1.15;0.40;;;;;;;;;;5068451;28;20529;-79
2023/11/14 07:58:57;;;;;;;1.60;0.38;;;;;;;;;;5076880;28;20039;-80
2023/11/14 08:01:23;;;;;;;2.55;0.50;;;;;;;;;;5070952;28;20029;-80
2023/11/14 08:03:49;;;;;;;3.25;0.77;;;;;;;;;;5075109;28;20033;-79
2023/11/14 08:06:15;;;;;;;1.90;0.80;;;;;;;;;;5057812;28;20028;-80
2023/11/14 08:08:43;;;;;;;0.45;0.40;;;;;;;;;;5066248;28;20130;-80
2023/11/14 08:11:09;;;;;;;2.00;0.50;;;;;;;;;;5069142;28;20017;-80
2023/11/14 08:13:35;;;;;;;0.90;0.50;;;;;;;;;;5073308;28;20032;-80
2023/11/14 08:16:02;;;;;;;0.47;0.38;;;;;;;;;;5070965;28;20040;-81
2023/11/14 08:18:28;;;;;;;2.05;0.52;;;;;;;;;;5081869;28;20029;-80
2023/11/14 08:20:54;;;;;;;0.60;0.45;;;;;;;;;;5073150;28;20389;-80
2023/11/14 08:23:20;;;;;;;0.95;0.60;;;;;;;;;;5071108;28;20035;-80
2023/11/14 08:25:46;;;;;;;0.55;0.40;;;;;;;;;;5071376;28;20025;-81
2023/11/14 08:28:13;;;;;;;0.68;0.40;;;;;;;;;;5068470;28;20099;-80
2023/11/14 08:30:40;;;;;;;0.43;0.40;;;;;;;;;;5072735;28;20051;-81
2023/11/14 08:33:07;;;;;;;0.20;0.20;;;;;;;;;;5073904;28;20040;-81
2023/11/14 08:35:33;;;;;;;0.45;0.40;;;;;;;;;;5073227;28;20017;-81
2023/11/14 08:37:59;;;;;;;1.98;0.50;;;;;;;;;;5064047;28;20040;-81
2023/11/14 08:40:27;;;;;;;0.32;0.32;;;;;;;;;;5071497;28;20116;-80
2023/11/14 08:42:53;;;;;;;2.13;0.43;;;;;;;;;;5073696;28;20020;-81
2023/11/14 08:45:20;;;;;;;0.73;0.30;;;;;;;;;;5069962;28;20020;-80
2023/11/14 08:47:46;;;;;;;0.90;0.50;;;;;;;;;;5074687;28;20028;-81
2023/11/14 08:50:12;;;;;;;0.93;0.55;;;;;;;;;;5067676;28;20020;-79
2023/11/14 08:52:39;;;;;;;0.60;0.50;;;;;;;;;;5079545;28;20029;-80
2023/11/14 08:55:08;;;;;;;0.20;0.20;;;;;;;;;;5085092;28;20024;-78
2023/11/14 08:57:34;;;;;;;0.80;0.30;;;;;;;;;;5087062;28;20479;-80
2023/11/14 09:00:00;;;;;;;1.02;0.57;;;;;;;;;;5084088;28;20080;-84
2023/11/14 09:02:26;;;;;;;1.02;0.40;;;;;;;;;;5077108;28;20475;-80
2023/11/14 09:04:53;;;;;;;0.60;0.30;;;;;;;;;;5071055;28;20017;-80
2023/11/14 09:07:19;;;;;;;0.52;0.40;;;;;;;;;;5070851;28;20021;-80
2023/11/14 09:09:47;;;;;;;0.65;0.50;;;;;;;;;;5073162;28;20029;-80
2023/11/14 09:12:13;;;;;;;0.35;0.28;;;;;;;;;;5078019;28;20024;-80
2023/11/14 09:14:39;;;;;;;0.68;0.65;;;;;;;;;;5074274;28;20029;-79
2023/11/14 09:17:05;;;;;;;1.52;0.50;;;;;;;;;;5072734;28;20131;-80
2023/11/14 09:19:31;;;;;;;1.20;0.40;;;;;;;;;;5063265;28;20048;-80
2023/11/14 09:21:58;;;;;;;0.20;0.20;;;;;;;;;;5083002;28;20482;-80
2023/11/14 09:24:24;;;;;;;0.43;0.32;;;;;;;;;;5084884;28;20511;-80
2023/11/14 09:26:50;;;;;;;1.33;0.30;;;;;;;;;;5085417;28;20025;-80
2023/11/14 09:29:16;;;;;;;1.02;0.40;;;;;;;;;;5076787;28;20052;-80
2023/11/14 09:31:42;;;;;;;0.50;0.30;;;;;;;;;;5078872;28;20029;-80
2023/11/14 09:34:09;;;;;;;0.77;0.30;;;;;;;;;;5077392;28;20067;-80
2023/11/14 09:36:35;;;;;;;0.80;0.43;;;;;;;;;;5079102;28;20100;-82
2023/11/14 09:39:01;;;;;;;1.33;0.47;;;;;;;;;;5082438;28;20048;-82
2023/11/14 09:41:28;;;;;;;0.90;0.40;;;;;;;;;;5072002;28;20507;-83
2023/11/14 09:43:54;;;;;;;0.25;0.25;;;;;;;;;;5081349;28;20460;-81
2023/11/14 09:46:20;;;;;;;0.30;0.28;;;;;;;;;;5077600;28;20041;-81
2023/11/14 09:48:46;;;;;;;0.65;0.38;;;;;;;;;;5073079;28;20039;-80
2023/11/14 09:51:12;;;;;;;0.50;0.40;;;;;;;;;;5063320;28;20017;-82
2023/11/14 09:53:40;;;;;;;5.25;0.40;;;;;;;;;;5076885;28;20032;-82
2023/11/14 09:56:06;;;;;;;1.80;0.52;;;;;;;;;;5073499;28;20020;-81
2023/11/14 09:58:33;;;;;;;1.23;0.30;;;;;;;;;;5076393;28;20029;-82
2023/11/14 10:01:00;;;;;;;1.42;0.98;;;;;;;;;;5078651;28;20029;-82
2023/11/14 10:03:28;;;;;;;1.38;0.60;;;;;;;;;;5072733;28;20024;-81
2023/11/14 10:05:55;;;;;;;1.00;0.60;;;;;;;;;;5078757;28;20043;-81
2023/11/14 10:08:21;;;;;;;1.85;0.50;;;;;;;;;;5068989;28;20458;-81
2023/11/14 10:11:03;;;;;;;1.50;0.57;;;;;;;;;;5076850;28;20032;-80
2023/11/14 10:13:29;;;;;;;;;;;;;;;;;;5077030;28;20029;-81
2023/11/14 10:15:55;;;;;;;0.57;0.30;;;;;;;;;;5083896;28;20006;-79
2023/11/14 10:18:31;;;;;;;0.77;0.60;;;;;;;;;;5076247;28;20487;-80
2023/11/14 10:20:57;;;;;;;0.32;0.22;;;;;;;;;;5067964;28;20035;-81
2023/11/14 10:23:33;;;;;;;0.38;0.32;;;;;;;;;;5078938;28;20104;-82
2023/11/14 10:26:08;;;;;;;1.98;0.60;;;;;;;;;;5095296;28;20031;-79
2023/11/14 10:28:34;;;;;;;1.10;0.30;;;;;;;;;;5087804;28;20017;-80
2023/11/14 10:31:00;;;;;;;0.85;0.43;;;;;;;;;;5094611;28;20486;-80
2023/11/14 10:33:30;;;;;;;0.82;0.30;;;;;;;;;;5088351;28;20051;-79
2023/11/14 10:36:00;;;;;;;0.22;0.20;;;;;;;;;;5095825;28;20032;-79
2023/11/14 10:38:27;;;;;;;0.77;0.40;;;;;;;;;;5082054;28;20017;-78
2023/11/14 10:40:54;;;;;;;0.35;0.30;;;;;;;;;;5081318;28;20037;-79
2023/11/14 10:43:31;;;;;;;1.33;0.60;;;;;;;;;;5073418;28;20021;-78
2023/11/14 10:45:59;;;;;;;0.57;0.20;;;;;;;;;;5073061;28;20465;-80
2023/11/14 10:48:26;;;;;;;0.40;0.40;;;;;;;;;;5088747;28;20039;-79
2023/11/14 10:50:52;;;;;;;0.43;0.40;;;;;;;;;;5087964;28;20039;-78
2023/11/14 10:53:19;;;;;;;1.00;0.63;;;;;;;;;;5076124;28;20025;-79
2023/11/14 10:55:46;;;;;;;1.83;0.55;;;;;;;;;;5088219;28;20044;-79
2023/11/14 10:58:15;;;;;;;0.50;0.50;;;;;;;;;;5085824;28;20132;-79
2023/11/14 11:00:41;;;;;;;0.40;0.40;;;;;;;;;;5084330;28;20104;-80
2023/11/14 11:03:08;;;;;;;2.47;0.80;;;;;;;;;;5074441;28;20522;-80
2023/11/14 11:05:34;;;;;;;0.77;0.40;;;;;;;;;;5076963;28;20056;-79
2023/11/14 11:08:08;;;;;;;1.65;0.43;;;;;;;;;;5072908;28;20016;-80
2023/11/14 11:10:37;;;;;;;0.57;0.20;;;;;;;;;;5083395;28;20027;-80
2023/11/14 11:13:08;;;;;;;0.35;0.35;;;;;;;;;;5081973;28;20028;-80
2023/11/14 11:15:44;;;;;;;0.40;0.30;;;;;;;;;;5080100;28;20071;-80
2023/11/14 11:18:10;;;;;;;1.00;0.50;;;;;;;;;;5071463;28;20383;-81
2023/11/14 11:20:36;;;;;;;0.60;0.30;;;;;;;;;;5079037;28;20054;-80
2023/11/14 11:23:10;;;;;;;1.70;0.40;;;;;;;;;;5075755;28;20025;-80
2023/11/14 11:25:37;;;;;;;1.17;0.50;;;;;;;;;;5070921;28;20032;-80
2023/11/14 11:28:21;;;;;;;0.30;0.30;;;;;;;;;;5073512;28;20020;-79
2023/11/14 11:31:15;;;;;;;0.40;0.40;;;;;;;;;;5079072;28;20040;-81
2023/11/14 11:33:42;;;;;;;0.73;0.52;;;;;;;;;;5063711;28;20052;-79
2023/11/14 11:36:23;;;;;;;0.63;0.50;;;;;;;;;;5072507;28;20036;-81
2023/11/14 11:38:57;;;;;;;2.05;0.57;;;;;;;;;;5073830;28;20024;-79
2023/11/14 11:41:24;;;;;;;0.95;0.50;;;;;;;;;;5070746;28;20052;-82
2023/11/14 11:44:03;;;;;;;1.17;0.60;;;;;;;;;;5075504;28;20040;-82
2023/11/14 11:46:34;;;;;;;0.40;0.40;;;;;;;;;;5076291;28;20025;-80
2023/11/14 11:49:09;;;;;;;1.58;1.00;;;;;;;;;;5087150;28;20043;-79
2023/11/14 11:51:36;;;;;;;0.88;0.50;;;;;;;;;;5073882;28;20020;-79
2023/11/14 11:54:22;;;;;;;0.85;0.60;;;;;;;;;;5079863;28;20130;-80
2023/11/14 11:56:49;;;;;;;1.02;0.52;;;;;;;;;;5079159;28;20056;-80
2023/11/14 11:59:15;;;;;;;0.30;0.30;;;;;;;;;;5069686;28;20036;-79
2023/11/14 12:01:52;;;;;;;0.85;0.40;;;;;;;;;;5064226;28;20021;-80
2023/11/14 12:04:19;;;;;;;0.50;0.50;;;;;;;;;;5073590;28;20028;-80
2023/11/14 12:06:46;;;;;;;0.43;0.40;;;;;;;;;;5088402;28;20121;-81
2023/11/14 12:09:13;;;;;;;1.48;0.60;;;;;;;;;;5079907;28;20029;-80
2023/11/14 12:11:40;;;;;;;0.47;0.47;;;;;;;;;;5076338;28;20043;-81
2023/11/14 12:14:09;;;;;;;0.30;0.30;;;;;;;;;;5079066;28;20028;-81
2023/11/14 12:16:36;;;;;;;0.47;0.30;;;;;;;;;;5069724;28;20050;-80
2023/11/14 12:19:03;;;;;;;0.60;0.60;;;;;;;;;;5072114;28;20048;-84
2023/11/14 12:21:29;;;;;;;0.73;0.40;;;;;;;;;;5069908;28;20024;-79
2023/11/14 12:23:56;;;;;;;0.52;0.52;;;;;;;;;;5066621;28;20020;-81
2023/11/14 12:26:22;;;;;;;4.20;0.95;;;;;;;;;;5072589;28;20061;-80
2023/11/14 12:28:49;;;;;;;0.75;0.70;;;;;;;;;;5076107;28;20033;-82
2023/11/14 12:31:24;;;;;;;1.35;0.50;;;;;;;;;;5065942;28;20749;-80
2023/11/14 12:33:52;;;;;;;0.30;0.30;;;;;;;;;;5084804;28;20040;-80
2023/11/14 12:36:25;;;;;;;2.22;0.30;;;;;;;;;;5079855;28;20037;-80
2023/11/14 12:38:51;;;;;;;1.13;0.60;;;;;;;;;;5089416;28;20036;-80
2023/11/14 12:41:24;;;;;;;0.50;0.40;;;;;;;;;;5080342;28;20029;-79
2023/11/14 12:43:51;;;;;;;0.85;0.52;;;;;;;;;;5065168;28;20036;-80
2023/11/14 12:46:24;;;;;;;0.40;0.40;;;;;;;;;;5068240;28;20517;-80
2023/11/14 12:49:08;;;;;;;0.73;0.40;;;;;;;;;;5087149;28;20077;-79
2023/11/14 12:51:34;;;;;;;0.30;0.30;;;;;;;;;;5081792;28;20022;-79
2023/11/14 12:54:00;;;;;;;1.20;0.30;;;;;;;;;;5078234;28;20033;-79
2023/11/14 12:56:26;;;;;;;0.75;0.60;;;;;;;;;;5092693;28;20021;-80
2023/11/14 12:58:52;;;;;;;0.30;0.30;;;;;;;;;;5092660;28;20133;-81
2023/11/14 13:01:19;;;;;;;0.40;0.40;;;;;;;;;;5072585;28;20040;-81
2023/11/14 13:03:45;;;;;;;0.45;0.45;;;;;;;;;;5083311;28;20028;-80
2023/11/14 13:06:11;;;;;;;1.85;0.45;;;;;;;;;;5089116;28;20020;-80
2023/11/14 13:08:37;;;;;;;1.27;0.55;;;;;;;;;;5088255;28;20039;-79
2023/11/14 13:11:04;;;;;;;0.77;0.77;;;;;;;;;;5077861;28;20022;-79
2023/11/14 13:13:30;;;;;;;0.60;0.30;;;;;;;;;;5081584;28;20497;-79
2023/11/14 13:15:58;;;;;;;2.20;0.30;;;;;;;;;;5079788;28;20025;-80
2023/11/14 13:18:24;;;;;;;0.35;0.30;;;;;;;;;;5082807;28;20026;-80
2023/11/14 13:20:50;;;;;;;2.00;0.55;;;;;;;;;;5091576;28;20541;-80
2023/11/14 13:23:17;;;;;;;0.50;0.40;;;;;;;;;;5077587;28;20087;-80
2023/11/14 13:25:43;;;;;;;0.90;0.52;;;;;;;;;;5086106;28;20021;-79
2023/11/14 13:28:09;;;;;;;0.30;0.30;;;;;;;;;;5094980;28;20012;-81
2023/11/14 13:30:35;;;;;;;0.60;0.50;;;;;;;;;;5096135;28;20025;-79
2023/11/14 13:33:02;;;;;;;2.33;0.80;;;;;;;;;;5085883;28;20027;-80
2023/11/14 13:35:28;;;;;;;0.43;0.30;;;;;;;;;;5085610;28;20415;-81
2023/11/14 13:37:54;;;;;;;2.65;0.50;;;;;;;;;;5074767;28;20013;-80
2023/11/14 13:40:20;;;;;;;0.98;0.40;;;;;;;;;;5078542;28;20040;-80
2023/11/14 13:42:47;;;;;;;0.73;0.30;;;;;;;;;;5080377;28;20056;-81
2023/11/14 13:45:13;;;;;;;0.50;0.50;;;;;;;;;;5081543;28;20032;-81
2023/11/14 13:47:40;;;;;;;1.15;0.75;;;;;;;;;;5084340;28;20190;-79
2023/11/14 13:50:09;;;;;;;2.45;0.40;;;;;;;;;;5083217;28;20076;-80
2023/11/14 13:52:36;;;;;;;0.65;0.50;;;;;;;;;;5078106;28;20021;-80
2023/11/14 13:55:02;;;;;;;0.38;0.38;;;;;;;;;;5079908;28;20052;-80
2023/11/14 13:57:29;;;;;;;0.47;0.30;;;;;;;;;;5077467;28;20027;-80
2023/11/14 13:59:55;;;;;;;1.58;0.40;;;;;;;;;;5076084;28;20025;-80
2023/11/14 14:02:22;;;;;;;0.90;0.38;;;;;;;;;;5076826;28;20418;-80
2023/11/14 14:04:51;;;;;;;0.57;0.30;;;;;;;;;;5085155;28;20036;-81
2023/11/14 14:07:17;;;;;;;1.30;0.60;;;;;;;;;;5083462;28;20054;-80
2023/11/14 14:09:43;;;;;;;0.65;0.60;;;;;;;;;;5074004;28;20025;-80
2023/11/14 14:12:10;;;;;;;0.65;0.45;;;;;;;;;;5072745;28;20021;-81
2023/11/14 14:14:40;;;;;;;0.43;0.35;;;;;;;;;;5061202;28;20033;-81
2023/11/14 14:17:08;;;;;;;0.55;0.40;;;;;;;;;;5078374;28;20462;-82
2023/11/14 14:19:37;;;;;;;1.20;0.60;;;;;;;;;;5103116;28;20044;-81
2023/11/14 14:22:06;;;;;;;2.08;0.50;;;;;;;;;;5075419;28;20084;-80
2023/11/14 14:24:32;;;;;;;0.57;0.25;;;;;;;;;;5068793;28;20028;-80
2023/11/14 14:26:59;;;;;;;1.20;0.47;;;;;;;;;;5076666;28;20036;-80
2023/11/14 14:29:26;;;;;;;1.05;0.32;;;;;;;;;;5082759;28;20021;-81
2023/11/14 14:31:54;;;;;;;1.27;0.47;;;;;;;;;;5082462;28;20078;-80
2023/11/14 14:34:20;;;;;;;0.47;0.43;;;;;;;;;;5077629;28;20023;-79
2023/11/14 14:36:46;;;;;;;1.25;0.30;;;;;;;;;;5089566;28;20033;-78
2023/11/14 14:39:13;;;;;;;1.63;0.50;;;;;;;;;;5094993;28;20305;-80
2023/11/14 14:41:39;;;;;;;1.27;0.40;;;;;;;;;;5096290;28;20044;-79
2023/11/14 14:44:05;;;;;;;1.42;0.52;;;;;;;;;;5081736;28;20036;-80
2023/11/14 14:46:36;;;;;;;1.27;0.50;;;;;;;;;;5079042;28;20028;-79
2023/11/14 14:49:03;;;;;;;1.33;0.28;;;;;;;;;;5080191;28;20038;-80